Portada
METAR-TAF:

METAR-TAF

Aeroports :

Kerteh, Malàisia

latitud: 04-32-15N, longitud: 103-25-36E, altitud: 5 m

Observació

L'informe es va fer fa 40 minuts, a les 14:00 UTC
Vent 4 kt del Nord, variant entre Oest/Nord-Oest i Est/Nord-Est
Temperatura 27°C
Humitat 84%
Pressió 1012 hPa

METAR: WMKE 261400Z AUTO 35004KT 300V060 //// // ////// 27/24 Q1012

Hora: 22:40 (14:40 UTC)

Pronòstic

L'informe es va fer fa 3 hores i 40 minuts, a les 11:00 UTC
Pronòstic vàlid del 26 a les 12 UTC al 27 a les 12 UTC
Vent 4 kt del Nord
Visibilitat 10 km o més
Escasses núvols a una alçada de 1600 ft
Evolucionant progressivament
l' 26 a les 15 UTC al 26 a les 17 UTC
Vent 3 kt amb direcció variable
Evolucionant progressivament
l' 27 a les 00 UTC al 27 a les 02 UTC
Vent 8 kt del Nord/Nord-Est
Escasses núvols a una alçada de 1400 ft

TAF: WMKE 261100Z 2612/2712 35004KT 9999 FEW016 BECMG 2615/2617 VRB03KT BECMG 2700/2702 03008KT FEW014

Observacions i pronòstics meteorològics de més de 4000 aeroports (METAR i TAF).

Les estacions disponibles són els punts grocs i vermells al mapa.

Posi el ratolí al punt desitjat per veure el nom de l'estació.

Feu clic per veure les observacions i els pronòstics meteorològics.

Per canviar el mapa: feu clic els botons verds amb una creu de color negre per apropar; al botó verd amb un guió per allunyar la imatge; o en les fletxes verdes per a mapes adjacents.


METAR-TAF: